Time;durP1;ratioP1;P1;durP2;ratioP2;P2;SDS_P1;SDS_P2;PMS_P1;PMS_P2;Temp;Humidity;BMP_temperature;BMP_pressure;BME280_temperature;BME280_humidity;BME280_pressure;Samples;Min_cycle;Max_cycle;Signal;HPM_P1;HPM_P2
2022/12/20 00:01:42;;;;;;;1.40;1.40;;;;;;;0.39;66.83;102425.97;18350778;32;20101;-58
2022/12/20 00:11:46;;;;;;;2.80;2.70;;;;;;;1.07;65.01;102438.47;18403086;31;20098;-57
2022/12/20 00:21:49;;;;;;;1.50;1.40;;;;;;;1.14;63.84;102442.38;18349785;32;20093;-58
2022/12/20 00:31:54;;;;;;;2.00;1.90;;;;;;;1.92;62.90;102440.72;18358345;32;20191;-58
2022/12/20 00:41:57;;;;;;;1.02;1.02;;;;;;;2.45;61.17;102422.59;18358942;32;20127;-57
2022/12/20 00:52:02;;;;;;;1.95;1.85;;;;;;;2.12;61.73;102414.50;18358829;32;20123;-58
2022/12/20 01:02:05;;;;;;;3.62;3.45;;;;;;;2.09;61.62;102397.16;18405971;32;20120;-58
2022/12/20 01:12:10;;;;;;;0.70;0.70;;;;;;;2.13;61.29;102383.66;18475154;31;20097;-58
2022/12/20 01:22:13;;;;;;;2.47;2.28;;;;;;;2.23;60.90;102382.56;18421859;32;20141;-58
2022/12/20 01:32:18;;;;;;;1.25;1.25;;;;;;;2.50;60.11;102367.06;18421131;32;20093;-58
2022/12/20 01:42:21;;;;;;;3.28;3.10;;;;;;;1.93;61.81;102347.19;18420141;31;20116;-58
2022/12/20 01:52:29;;;;;;;0.90;0.90;;;;;;;2.34;60.83;102327.44;18420288;32;20103;-58
2022/12/20 02:02:33;;;;;;;0.77;0.77;;;;;;;2.55;60.12;102298.63;18473943;31;20429;-58
2022/12/20 02:12:41;;;;;;;2.53;2.33;;;;;;;2.68;59.83;102294.22;18419151;32;20373;-58
2022/12/20 02:22:57;;;;;;;0.80;0.80;;;;;;;2.37;60.26;102308.69;18419119;32;20431;-58
2022/12/20 02:33:03;;;;;;;1.02;1.02;;;;;;;2.18;60.88;102286.03;18418648;32;20708;-58
2022/12/20 02:45:14;;;;;;;0.82;0.82;;;;;;;1.82;61.61;102300.97;18419501;31;20664;-58
2022/12/20 02:53:36;;;;;;;0.70;0.70;;;;;;;2.45;60.33;102280.81;18416626;31;20105;-57
2022/12/20 03:03:40;;;;;;;1.00;1.00;;;;;;;0.89;64.87;102270.94;18416870;32;20187;-58
2022/12/20 03:13:44;;;;;;;0.62;0.62;;;;;;;1.64;63.07;102235.47;18469926;31;20092;-57
2022/12/20 03:23:48;;;;;;;2.87;2.67;;;;;;;1.68;63.09;102235.69;18416882;32;20113;-57
2022/12/20 03:33:52;;;;;;;12.75;2.28;;;;;;;1.64;62.93;102240.63;18469466;31;20131;-58
2022/12/20 03:43:56;;;;;;;0.77;0.77;;;;;;;2.17;61.16;102250.75;18415676;31;20085;-57
2022/12/20 03:54:00;;;;;;;0.60;0.60;;;;;;;1.24;64.81;102231.25;18416400;32;20108;-58
2022/12/20 04:04:03;;;;;;;1.23;1.12;;;;;;;1.55;63.26;102208.28;18421792;32;20116;-57
2022/12/20 04:14:08;;;;;;;0.70;0.70;;;;;;;1.76;62.63;102206.19;18424416;32;20092;-58
2022/12/20 04:24:11;;;;;;;5.22;4.78;;;;;;;1.88;62.28;102211.19;18423924;32;20101;-58
2022/12/20 04:34:15;;;;;;;0.88;0.85;;;;;;;1.97;62.03;102198.88;18423393;32;20100;-58
2022/12/20 04:44:19;;;;;;;0.80;0.80;;;;;;;2.10;61.69;102176.47;18423891;31;20101;-58
2022/12/20 04:54:26;;;;;;;0.70;0.70;;;;;;;2.34;61.00;102193.41;18422672;32;20149;-58
2022/12/20 05:04:29;;;;;;;1.50;1.45;;;;;;;2.96;59.34;102184.97;18422617;32;20093;-58
2022/12/20 05:14:40;;;;;;;3.25;2.78;;;;;;;2.74;59.44;102199.16;18422392;32;20136;-58
2022/12/20 05:35:07;;;;;;;0.77;0.77;;;;;;;2.30;60.77;102208.59;18420880;32;20099;-58
2022/12/20 05:45:11;;;;;;;1.90;1.80;;;;;;;2.27;61.53;102204.13;18421713;32;20545;-58
2022/12/20 05:55:15;;;;;;;0.77;0.77;;;;;;;2.39;60.94;102210.84;18473393;31;20116;-58
2022/12/20 06:05:19;;;;;;;1.98;1.87;;;;;;;1.94;62.09;102190.97;18390569;32;20102;-58
2022/12/20 06:15:24;;;;;;;0.75;0.75;;;;;;;2.19;61.12;102174.47;18374345;32;20097;-57
2022/12/20 06:25:27;;;;;;;1.23;1.15;;;;;;;2.28;60.55;102166.38;18398999;32;20738;-58
2022/12/20 06:35:32;;;;;;;1.15;1.15;;;;;;;2.48;60.04;102159.84;18390698;32;20125;-58
2022/12/20 06:45:35;;;;;;;1.23;1.23;;;;;;;2.65;59.38;102132.47;18407459;31;20085;-57
2022/12/20 06:55:48;;;;;;;0.70;0.70;;;;;;;2.66;59.78;102130.78;18385156;32;20105;-57
2022/12/20 07:05:53;;;;;;;5.32;3.83;;;;;;;2.88;59.43;102126.06;18362312;32;20115;-57
2022/12/20 07:15:59;;;;;;;1.70;1.62;;;;;;;2.90;59.37;102134.78;18409697;31;20127;-58
2022/12/20 07:26:03;;;;;;;1.25;1.20;;;;;;;2.86;59.07;102155.16;18352583;32;20081;-58
2022/12/20 07:36:11;;;;;;;1.77;1.67;;;;;;;2.79;59.08;102146.16;18381323;32;20097;-58
2022/12/20 07:46:15;;;;;;;0.70;0.70;;;;;;;2.75;59.04;102146.78;18357326;32;20082;-58
2022/12/20 07:56:21;;;;;;;0.90;0.90;;;;;;;2.45;60.11;102157.97;18351248;32;20094;-58
2022/12/20 08:06:24;;;;;;;1.45;1.35;;;;;;;3.23;57.72;102138.31;18377096;32;20136;-57
2022/12/20 08:16:29;;;;;;;0.90;0.90;;;;;;;3.41;57.50;102131.56;18398419;32;20089;-57
2022/12/20 08:26:37;;;;;;;1.25;1.17;;;;;;;3.28;56.98;102111.94;18403498;31;20122;-58
2022/12/20 08:36:42;;;;;;;1.30;1.25;;;;;;;2.24;59.79;102098.28;18349708;32;20101;-58
2022/12/20 08:46:45;;;;;;;1.67;1.58;;;;;;;3.57;56.97;102093.66;18352780;31;20073;-58
2022/12/20 08:56:50;;;;;;;3.03;2.92;;;;;;;3.63;56.66;102088.84;18358350;32;20093;-58
2022/12/20 09:06:53;;;;;;;0.70;0.70;;;;;;;2.77;58.93;102091.03;18391123;32;20645;-58
2022/12/20 09:16:58;;;;;;;1.30;1.30;;;;;;;3.43;57.39;102075.75;18402791;32;20186;-58
2022/12/20 09:27:01;;;;;;;1.70;1.62;;;;;;;3.97;54.38;102088.03;18357290;32;20097;-58
2022/12/20 09:37:05;;;;;;;0.65;0.65;;;;;;;4.78;51.72;102057.53;18391495;32;20108;-58
2022/12/20 09:47:14;;;;;;;0.95;0.95;;;;;;;4.94;52.15;102051.41;18418682;32;20376;-58
2022/12/20 09:57:29;;;;;;;0.75;0.75;;;;;;;4.64;51.95;102039.66;18379249;32;20093;-58
2022/12/20 10:07:39;;;;;;;2.60;2.50;;;;;;;5.05;50.79;102018.25;18382611;32;20096;-58
2022/12/20 10:17:54;;;;;;;0.70;0.70;;;;;;;4.39;51.47;102014.28;18382305;32;20452;-58
2022/12/20 10:28:01;;;;;;;0.93;0.93;;;;;;;4.64;52.05;101987.91;18381677;32;20147;-57
2022/12/20 10:38:11;;;;;;;0.93;0.93;;;;;;;5.16;50.79;101972.16;18375292;32;20093;-58
2022/12/20 10:48:27;;;;;;;0.60;0.60;;;;;;;5.97;48.10;101966.16;18400092;31;20186;-58
2022/12/20 10:58:35;;;;;;;6.82;1.58;;;;;;;5.68;48.56;101945.94;18353813;32;20474;-58
2022/12/20 11:08:38;;;;;;;0.60;0.60;;;;;;;5.36;49.88;101929.91;18398738;32;20141;-58
2022/12/20 11:19:21;;;;;;;0.80;0.80;;;;;;;4.89;50.69;101916.62;18417047;32;20093;-58
2022/12/20 11:29:49;;;;;;;1.60;1.50;;;;;;;5.60;49.55;101898.13;18472771;31;20176;-58
2022/12/20 11:40:05;;;;;;;0.90;0.90;;;;;;;4.72;52.50;101879.59;18416074;32;80394;-58
2022/12/20 11:50:35;;;;;;;1.35;1.33;;;;;;;5.46;49.98;101868.16;18417897;32;20117;-58
2022/12/20 12:00:40;;;;;;;0.68;0.68;;;;;;;5.76;49.38;101862.47;18471446;31;20123;-58
2022/12/20 12:10:55;;;;;;;0.88;0.88;;;;;;;5.19;50.63;101851.50;18358821;32;20403;-58
2022/12/20 12:21:04;;;;;;;2.17;1.15;;;;;;;4.79;50.83;101848.03;18356448;32;20142;-58
2022/12/20 12:31:18;;;;;;;0.60;0.60;;;;;;;4.32;52.65;101845.06;18362876;31;20129;-58
2022/12/20 12:41:53;;;;;;;0.80;0.80;;;;;;;4.73;52.53;101827.03;18362186;32;20429;-58
2022/12/20 12:51:59;;;;;;;0.65;0.65;;;;;;;2.99;58.54;101823.91;18362236;32;20135;-58
2022/12/20 13:02:42;;;;;;;1.00;1.00;;;;;;;3.32;57.37;101809.28;18361162;32;20193;-58
2022/12/20 13:12:57;;;;;;;0.80;0.80;;;;;;;3.32;57.99;101811.84;18343038;32;20128;-57
2022/12/20 13:23:16;;;;;;;1.12;1.08;;;;;;;3.67;57.25;101808.38;18411740;32;20119;-58
2022/12/20 13:33:23;;;;;;;0.80;0.80;;;;;;;3.49;57.20;101801.50;18423678;32;20085;-58
2022/12/20 13:43:29;;;;;;;1.00;1.00;;;;;;;3.67;57.27;101783.41;18423974;31;20161;-57
2022/12/20 13:53:34;;;;;;;0.70;0.70;;;;;;;3.45;57.36;101778.91;18423176;32;20427;-58
2022/12/20 14:03:41;;;;;;;0.80;0.80;;;;;;;3.43;56.88;101777.94;18423275;32;20127;-57
2022/12/20 14:13:52;;;;;;;0.82;0.82;;;;;;;3.57;56.93;101757.97;18422896;32;20107;-57
2022/12/20 14:23:57;;;;;;;1.20;1.20;;;;;;;2.77;60.83;101748.87;18406782;32;20364;-57
2022/12/20 14:34:06;;;;;;;5.87;3.00;;;;;;;3.28;59.97;101742.84;18422212;32;20115;-58
2022/12/20 14:44:16;;;;;;;0.77;0.77;;;;;;;2.60;61.90;101742.88;18419694;31;20126;-57
2022/12/20 14:54:23;;;;;;;1.10;1.10;;;;;;;2.83;60.94;101739.72;18469037;31;20112;-58
2022/12/20 15:04:46;;;;;;;0.85;0.85;;;;;;;2.60;62.03;101729.06;18419475;32;20107;-58
2022/12/20 15:14:51;;;;;;;0.50;0.50;;;;;;;2.88;61.35;101733.06;18386229;32;20150;-57
2022/12/20 15:24:54;;;;;;;1.37;1.37;;;;;;;3.01;60.60;101714.84;18354071;32;20533;-58
2022/12/20 15:34:58;;;;;;;2.75;2.55;;;;;;;3.18;60.27;101730.28;18382204;32;20101;-58
2022/12/20 15:45:02;;;;;;;1.23;1.23;;;;;;;3.99;58.20;101734.09;18404197;31;20109;-58
2022/12/20 15:55:10;;;;;;;1.48;1.40;;;;;;;4.24;57.73;101743.84;18382809;32;20133;-58
2022/12/20 16:05:13;;;;;;;0.50;0.50;;;;;;;3.93;58.75;101731.22;18362457;32;20372;-58
2022/12/20 16:15:21;;;;;;;2.37;2.28;;;;;;;3.67;60.68;101728.31;18431741;31;20093;-59
2022/12/20 16:25:27;;;;;;;1.17;1.17;;;;;;;3.03;63.25;101727.78;18378583;32;20115;-58
2022/12/20 16:35:33;;;;;;;0.55;0.55;;;;;;;2.83;64.76;101725.09;18385184;32;20719;-58
2022/12/20 16:45:36;;;;;;;1.48;1.45;;;;;;;2.48;65.99;101704.44;18375961;32;20096;-58
2022/12/20 16:55:41;;;;;;;0.85;0.85;;;;;;;2.66;65.44;101705.34;18370853;32;20182;-58
2022/12/20 17:05:44;;;;;;;0.70;0.70;;;;;;;1.56;69.41;101700.38;18390146;32;20125;-58
2022/12/20 17:15:49;;;;;;;0.70;0.70;;;;;;;2.00;68.03;101701.94;18393838;32;20101;-58
2022/12/20 17:25:52;;;;;;;1.00;1.00;;;;;;;2.38;66.25;101683.28;18456550;31;20334;-58
2022/12/20 17:35:58;;;;;;;0.98;0.98;;;;;;;2.55;66.04;101695.31;18394597;32;20092;-58
2022/12/20 17:46:01;;;;;;;0.60;0.60;;;;;;;3.09;63.84;101693.72;18357878;32;20380;-58
2022/12/20 17:56:06;;;;;;;0.70;0.70;;;;;;;3.24;63.69;101685.81;18383631;31;20097;-59
2022/12/20 18:06:10;;;;;;;0.70;0.70;;;;;;;3.49;62.77;101667.22;18444067;31;20093;-58
2022/12/20 18:16:18;;;;;;;0.95;0.95;;;;;;;3.91;61.23;101669.16;18381072;32;20186;-58
2022/12/20 18:26:23;;;;;;;1.40;1.10;;;;;;;3.66;61.72;101659.41;18384204;32;20093;-58
2022/12/20 18:36:29;;;;;;;2.87;2.78;;;;;;;3.89;60.92;101650.13;18369375;32;20085;-58
2022/12/20 18:46:33;;;;;;;0.80;0.80;;;;;;;3.93;60.74;101633.94;18384939;32;20093;-58
2022/12/20 18:56:39;;;;;;;4.37;1.15;;;;;;;3.00;63.88;101629.63;18403798;32;20440;-59
2022/12/20 19:06:42;;;;;;;0.90;0.90;;;;;;;3.75;61.33;101629.69;18433253;31;20145;-58
2022/12/20 19:16:50;;;;;;;0.70;0.70;;;;;;;3.94;60.85;101615.03;18431467;31;20124;-58
2022/12/20 19:26:54;;;;;;;0.77;0.77;;;;;;;3.73;61.52;101591.69;18418553;31;20093;-58
2022/12/20 19:36:58;;;;;;;1.55;1.45;;;;;;;3.85;60.72;101583.63;18406984;31;20767;-58
2022/12/20 19:47:02;;;;;;;1.40;1.33;;;;;;;3.82;60.80;101592.09;18406813;31;20093;-58
2022/12/20 19:57:10;;;;;;;0.70;0.70;;;;;;;4.02;60.42;101597.28;18414982;31;20148;-58
2022/12/20 20:07:14;;;;;;;2.83;1.27;;;;;;;3.98;60.46;101616.94;18435539;31;20094;-58
2022/12/20 20:17:19;;;;;;;3.10;2.95;;;;;;;4.00;60.54;101620.47;18379174;32;20388;-58
2022/12/20 20:27:22;;;;;;;1.62;1.55;;;;;;;3.98;60.72;101616.06;18431650;31;20097;-60
2022/12/20 20:37:27;;;;;;;5.10;4.28;;;;;;;3.99;60.81;101603.22;18360754;32;20124;-58
2022/12/20 20:47:31;;;;;;;2.53;2.35;;;;;;;4.11;60.50;101596.81;18374310;32;20102;-59
2022/12/20 20:57:38;;;;;;;2.28;1.70;;;;;;;4.00;60.97;101589.47;18454490;31;20101;-58
2022/12/20 21:07:44;;;;;;;1.10;1.10;;;;;;;4.00;60.86;101568.81;18400167;31;20117;-61
2022/12/20 21:17:49;;;;;;;1.65;1.55;;;;;;;3.95;60.71;101566.84;18362425;32;20098;-58
2022/12/20 21:27:53;;;;;;;0.95;0.95;;;;;;;3.79;61.24;101560.97;18360999;32;20089;-58
2022/12/20 21:37:57;;;;;;;1.77;1.67;;;;;;;4.20;60.14;101562.72;18360380;31;20108;-58
2022/12/20 21:48:02;;;;;;;1.42;1.33;;;;;;;4.35;59.95;101542.69;18412755;31;20085;-58
2022/12/20 21:58:07;;;;;;;2.45;1.92;;;;;;;4.30;60.08;101519.22;18411607;31;20141;-59
2022/12/20 22:08:10;;;;;;;1.15;1.12;;;;;;;4.18;60.05;101515.25;18359344;32;20759;-58
2022/12/20 22:18:15;;;;;;;2.20;2.05;;;;;;;4.29;59.86;101507.13;18389008;32;20172;-59
2022/12/20 22:28:18;;;;;;;1.75;1.02;;;;;;;4.29;60.27;101478.69;18403841;32;20441;-58
2022/12/20 22:38:23;;;;;;;0.80;0.80;;;;;;;4.44;59.23;101462.91;18358055;32;20097;-58
2022/12/20 22:48:26;;;;;;;0.90;0.90;;;;;;;3.36;61.17;101454.09;18358548;32;20128;-58
2022/12/20 22:58:31;;;;;;;1.15;1.10;;;;;;;3.16;62.41;101445.44;18357309;32;20549;-58
2022/12/20 23:08:36;;;;;;;2.80;2.60;;;;;;;3.33;61.07;101433.31;18365742;32;20097;-58
2022/12/20 23:18:41;;;;;;;0.88;0.88;;;;;;;3.63;60.89;101426.81;18376631;32;20178;-59
2022/12/20 23:28:44;;;;;;;10.07;4.20;;;;;;;3.23;61.64;101410.50;18383187;32;20375;-59
2022/12/20 23:38:49;;;;;;;0.60;0.60;;;;;;;4.02;59.18;101400.88;18411146;32;20132;-58
2022/12/20 23:48:52;;;;;;;5.12;2.35;;;;;;;4.30;58.70;101383.91;18416739;32;20111;-59
2022/12/20 23:58:57;;;;;;;1.83;0.73;;;;;;;4.39;58.56;101371.34;18416475;32;20107;-59
